Terminal Aerodrome Forecast
Issued by NWS Pocatello, ID

Home | Current Version | Previous Version | Text Only | Print | Product List | Glossary On
Versions: 1 2 3 4 5 6 7 8 9 10 11 12
964
FTUS45 KPIH 251123
TAFBYI
TAF
KBYI 251123Z 2512/2612 23005KT P6SM -SHRA BKN070 BKN100
     FM251700 29010KT P6SM VCTS SCT080 SCT120CB
     FM260300 15006KT P6SM VCTS OVC100CB=

USA.gov is the U.S. government's official web portal to all federal, state and local government web resources and services.